North Fairfield, Ohio
Current Conditions -  °F | °C
As of 11:15 AM on Thursday 30 Oct 2014 (Local Time) from KMFD Reporting Station
Broken Clouds Broken Clouds  
Wind Chill: 44°   Ceiling: 2000
Heat Index: 46°   Visibility: 10mi
Dew Point: 39°   Wind: 5mph
Humidity: 76%   Direction: 330°NNW
Pressure: 30.14"   Gusts: NA
Location:  41.1°N, 82.61°W
Report Text: KMFD 301515Z 33004KT 10SM SCT014 BKN020 08/04 A3014 RMK AO2 T00780039
Loading
Personal Weather Stations






























Interactive Weather Map
Tropical Storm Tracking
New forecast layout! Learn more

10-Day Weather Forecast

Advertisements
Track Severe Weather on mobile